createdAt,value
2023-11-25T00:00:07.741Z,99841.63
2023-11-25T00:02:39.143Z,99836.44
2023-11-25T00:05:06.821Z,99834.72
2023-11-25T00:07:34.462Z,99858.13
2023-11-25T00:10:01.617Z,99855.56
2023-11-25T00:12:29.068Z,99847.78
2023-11-25T00:14:56.107Z,99833.09
2023-11-25T00:17:25.254Z,99865.16
2023-11-25T00:19:52.334Z,99866.03
2023-11-25T00:22:19.553Z,99871.25
2023-11-25T00:24:46.541Z,99880.78
2023-11-25T00:27:15.075Z,99888.59
2023-11-25T00:29:42.786Z,99888.59
2023-11-25T00:32:09.939Z,99866.09
2023-11-25T00:34:37.942Z,99888.59
2023-11-25T00:37:05.516Z,99903.31
2023-11-25T00:39:32.622Z,99886.88
2023-11-25T00:41:59.658Z,99866.09
2023-11-25T00:44:26.864Z,99899.88
2023-11-25T00:46:53.918Z,99915.47
2023-11-25T00:49:21.046Z,99916.31
2023-11-25T00:51:48.026Z,99928.50
2023-11-25T00:54:15.012Z,99897.28
2023-11-25T00:56:42.626Z,99921.53
2023-11-25T00:59:09.575Z,99944.94
2023-11-25T01:01:37.017Z,99951.00
2023-11-25T01:04:04.835Z,99925.91
2023-11-25T01:06:31.961Z,99940.63
2023-11-25T01:08:58.921Z,99928.47
2023-11-25T01:11:25.972Z,99964.88
2023-11-25T01:13:52.962Z,99983.94
2023-11-25T01:16:20.151Z,99977.88
2023-11-25T01:18:47.388Z,99974.44
2023-11-25T01:21:14.643Z,99965.78
2023-11-25T01:23:41.642Z,99968.34
2023-11-25T01:26:09.698Z,99975.31
2023-11-25T01:28:38.430Z,99998.69
2023-11-25T01:31:06.312Z,99972.72
2023-11-25T01:33:33.319Z,99995.25
2023-11-25T01:36:00.346Z,99960.56
2023-11-25T01:38:27.331Z,99996.13
2023-11-25T01:40:56.822Z,99991.78
2023-11-25T01:43:27.075Z,99980.50
2023-11-25T01:45:57.816Z,100012.59
2023-11-25T01:48:26.550Z,99983.13
2023-11-25T01:50:53.762Z,99988.31
2023-11-25T01:53:21.344Z,99996.09
2023-11-25T01:55:52.252Z,99996.13
2023-11-25T01:58:23.703Z,100004.75
2023-11-25T02:00:50.847Z,99989.19
2023-11-25T02:03:18.720Z,100012.56
2023-11-25T02:05:46.519Z,99999.59
2023-11-25T02:08:13.977Z,100005.63
2023-11-25T02:10:41.229Z,99994.34
2023-11-25T02:13:11.526Z,99991.75
2023-11-25T02:15:41.122Z,100006.50
2023-11-25T02:18:12.098Z,100003.88
2023-11-25T02:20:43.614Z,100012.53
2023-11-25T02:23:23.655Z,100016.84
2023-11-25T02:25:53.749Z,99991.72
2023-11-25T02:28:21.719Z,99999.47
2023-11-25T02:30:49.691Z,100012.47
2023-11-25T02:33:17.638Z,100019.41
2023-11-25T02:35:47.621Z,100024.59
2023-11-25T02:38:15.631Z,100018.53
2023-11-25T02:40:45.892Z,99996.00
2023-11-25T02:43:13.589Z,100022.00
2023-11-25T02:45:40.899Z,100015.91
2023-11-25T02:48:09.218Z,100037.56
2023-11-25T02:50:36.310Z,100031.53
2023-11-25T02:53:05.590Z,100044.53
2023-11-25T02:55:32.666Z,100032.38
2023-11-25T02:57:59.644Z,100043.66
2023-11-25T03:00:30.060Z,100067.06
2023-11-25T03:03:08.821Z,100044.50
2023-11-25T03:05:38.265Z,100057.50
2023-11-25T03:08:07.476Z,100072.22
2023-11-25T03:10:34.735Z,100069.63
2023-11-25T03:13:02.140Z,100082.59
2023-11-25T03:15:29.123Z,100066.13
2023-11-25T03:17:56.833Z,100067.00
2023-11-25T03:20:24.569Z,100084.31
2023-11-25T03:22:51.849Z,100054.81
2023-11-25T03:25:18.856Z,100092.16
2023-11-25T03:27:45.827Z,100079.09
2023-11-25T03:30:13.849Z,100094.69
2023-11-25T03:32:40.944Z,100093.78
2023-11-25T03:35:08.413Z,100092.94
2023-11-25T03:37:35.428Z,100066.88
2023-11-25T03:40:02.398Z,100085.94
2023-11-25T03:42:29.353Z,100119.72
2023-11-25T03:44:56.474Z,100105.81
2023-11-25T03:47:23.937Z,100111.81
2023-11-25T03:49:50.941Z,100136.06
2023-11-25T03:52:18.691Z,100122.25
2023-11-25T03:54:45.643Z,100143.03
2023-11-25T03:57:12.661Z,100131.72
2023-11-25T03:59:39.660Z,100128.22
2023-11-25T04:02:08.236Z,100154.25
2023-11-25T04:04:35.836Z,100127.34
2023-11-25T04:07:02.823Z,100122.13
2023-11-25T04:09:30.061Z,100129.91
2023-11-25T04:11:57.035Z,100141.22
2023-11-25T04:14:26.724Z,100125.59
2023-11-25T04:16:53.688Z,100133.38
2023-11-25T04:19:20.727Z,100141.16
2023-11-25T04:21:49.014Z,100141.13
2023-11-25T04:24:15.983Z,100143.69
2023-11-25T04:26:42.943Z,100152.38
2023-11-25T04:29:12.366Z,100151.38
2023-11-25T04:31:40.268Z,100161.75
2023-11-25T04:34:07.251Z,100148.72
2023-11-25T04:36:36.151Z,100133.94
2023-11-25T04:39:03.274Z,100153.03
2023-11-25T04:41:31.987Z,100156.50
2023-11-25T04:43:59.099Z,100164.34
2023-11-25T04:46:26.068Z,100167.81
2023-11-25T04:48:52.989Z,100167.69
2023-11-25T04:51:26.622Z,100165.13
2023-11-25T04:53:53.544Z,100155.63
2023-11-25T04:56:23.230Z,100162.50
2023-11-25T04:58:50.201Z,100186.78
2023-11-25T05:01:18.495Z,100176.34
2023-11-25T05:03:45.936Z,100192.00
2023-11-25T05:06:12.863Z,100181.50
2023-11-25T05:08:43.204Z,100179.78
2023-11-25T05:11:10.108Z,100181.50
2023-11-25T05:13:38.221Z,100159.84
2023-11-25T05:16:06.303Z,100185.88
2023-11-25T05:18:33.233Z,100176.38
2023-11-25T05:21:00.229Z,100181.63
2023-11-25T05:23:27.149Z,100181.63
2023-11-25T05:25:55.428Z,100178.19
2023-11-25T05:28:23.285Z,100175.56
2023-11-25T05:30:50.232Z,100183.50
2023-11-25T05:33:17.215Z,100193.91
2023-11-25T05:35:44.169Z,100166.06
2023-11-25T05:38:11.110Z,100186.91
2023-11-25T05:40:41.481Z,100178.25
2023-11-25T05:43:10.871Z,100172.22
2023-11-25T05:45:41.836Z,100181.78
2023-11-25T05:48:08.942Z,100180.97
2023-11-25T05:50:35.941Z,100171.41
2023-11-25T05:53:07.293Z,100168.78
2023-11-25T05:55:34.723Z,100161.84
2023-11-25T05:58:02.468Z,100189.63
2023-11-25T06:00:30.734Z,100188.81
2023-11-25T06:02:57.867Z,100190.56
2023-11-25T06:05:24.920Z,100170.59
2023-11-25T06:07:52.117Z,100196.66
2023-11-25T06:10:24.128Z,100194.06
2023-11-25T06:12:51.084Z,100192.38
2023-11-25T06:15:20.105Z,100178.38
2023-11-25T06:17:48.188Z,100165.34
2023-11-25T06:20:15.479Z,100166.25
2023-11-25T06:22:42.513Z,100170.56
2023-11-25T06:25:09.927Z,100162.78
2023-11-25T06:27:36.939Z,100190.59
2023-11-25T06:30:04.336Z,100201.84
2023-11-25T06:32:31.791Z,100194.91
2023-11-25T06:34:59.407Z,100189.69
2023-11-25T06:37:26.500Z,100194.03
2023-11-25T06:39:53.485Z,100194.03
2023-11-25T06:42:21.412Z,100194.06
2023-11-25T06:44:51.861Z,100187.06
2023-11-25T06:47:18.947Z,100190.50
2023-11-25T06:49:47.442Z,100206.22
2023-11-25T06:52:14.468Z,100202.78
2023-11-25T06:54:41.860Z,100210.63
2023-11-25T06:57:11.795Z,100170.63
2023-11-25T06:59:46.431Z,100195.81
2023-11-25T07:02:13.968Z,100205.31
2023-11-25T07:04:40.993Z,100215.81
2023-11-25T07:07:08.443Z,100198.44
2023-11-25T07:09:35.509Z,100201.00
2023-11-25T07:12:05.346Z,100211.44
2023-11-25T07:14:32.281Z,100224.44
2023-11-25T07:16:59.275Z,100166.25
2023-11-25T07:19:26.216Z,100229.72
2023-11-25T07:21:53.241Z,100164.28
2023-11-25T07:24:20.305Z,100214.81
2023-11-25T07:26:52.702Z,100213.03
2023-11-25T07:29:20.226Z,100238.28
2023-11-25T07:31:48.100Z,100228.78
2023-11-25T07:34:15.175Z,100260.88
2023-11-25T07:36:43.910Z,100242.63
2023-11-25T07:39:10.995Z,100253.09
2023-11-25T07:41:38.021Z,100246.22
2023-11-25T07:44:05.494Z,100226.25
2023-11-25T07:46:32.711Z,100228.84
2023-11-25T07:48:59.799Z,100233.13
2023-11-25T07:51:26.980Z,100245.19
2023-11-25T07:53:54.056Z,100226.06
2023-11-25T07:56:21.245Z,100236.53
2023-11-25T07:58:48.305Z,100260.81
2023-11-25T08:01:18.171Z,100211.31
2023-11-25T08:03:45.213Z,100232.13
2023-11-25T08:06:14.247Z,100255.56
2023-11-25T08:08:41.989Z,100240.00
2023-11-25T08:11:09.877Z,100244.31
2023-11-25T08:13:36.970Z,100235.72
2023-11-25T08:16:05.548Z,100232.25
2023-11-25T08:18:32.621Z,100240.97
2023-11-25T08:20:59.955Z,100247.88
2023-11-25T08:23:26.869Z,100249.63
2023-11-25T08:25:53.828Z,100267.97
2023-11-25T08:28:20.872Z,100251.53
2023-11-25T08:30:47.829Z,100247.19
2023-11-25T08:33:14.892Z,100238.53
2023-11-25T08:35:42.479Z,100254.22
2023-11-25T08:38:09.455Z,100250.81
2023-11-25T08:40:36.542Z,100203.09
2023-11-25T08:43:09.812Z,100228.28
2023-11-25T08:45:39.009Z,100225.69
2023-11-25T08:48:09.109Z,100200.53
2023-11-25T08:50:37.038Z,100224.03
2023-11-25T08:53:04.078Z,100215.38
2023-11-25T08:55:31.467Z,100198.88
2023-11-25T08:57:58.668Z,100205.00
2023-11-25T09:00:25.961Z,100210.22
2023-11-25T09:02:55.103Z,100227.63
2023-11-25T09:05:27.265Z,100215.47
2023-11-25T09:07:56.431Z,100188.53
2023-11-25T09:10:24.427Z,100225.88
2023-11-25T09:12:54.254Z,100217.19
2023-11-25T09:15:22.391Z,100227.59
2023-11-25T09:17:53.340Z,100233.69
2023-11-25T09:20:22.747Z,100223.25
2023-11-25T09:22:50.705Z,100205.03
2023-11-25T09:25:18.273Z,100221.56
2023-11-25T09:27:45.504Z,100212.88
2023-11-25T09:30:14.998Z,100214.63
2023-11-25T09:32:43.089Z,100218.06
2023-11-25T09:35:12.391Z,100204.19
2023-11-25T09:37:44.392Z,100206.81
2023-11-25T09:40:15.425Z,100226.81
2023-11-25T09:42:44.454Z,100211.19
2023-11-25T09:45:13.654Z,100229.41
2023-11-25T09:47:44.635Z,100210.31
2023-11-25T09:50:12.191Z,100239.81
2023-11-25T09:53:05.226Z,100212.03
2023-11-25T09:55:33.829Z,100198.16
2023-11-25T09:58:07.564Z,100233.75
2023-11-25T10:00:36.375Z,100232.88
2023-11-25T10:03:08.194Z,100218.16
2023-11-25T10:05:35.599Z,100217.25
2023-11-25T10:08:02.761Z,100207.72
2023-11-25T10:10:30.286Z,100206.84
2023-11-25T10:12:57.610Z,100193.84
2023-11-25T10:15:24.687Z,100195.53
2023-11-25T10:17:52.167Z,100192.94
2023-11-25T10:20:23.649Z,100187.75
2023-11-25T10:22:54.493Z,100167.78
2023-11-25T10:25:25.533Z,100188.63
2023-11-25T10:27:53.369Z,100199.03
2023-11-25T10:30:22.309Z,100180.78
2023-11-25T10:32:51.320Z,100195.59
2023-11-25T10:35:19.980Z,100178.22
2023-11-25T10:37:47.249Z,100199.94
2023-11-25T10:40:18.185Z,100194.72
2023-11-25T10:42:46.688Z,100166.94
2023-11-25T10:45:18.260Z,100168.69
2023-11-25T10:47:46.251Z,100173.91
2023-11-25T10:50:16.591Z,100166.97
2023-11-25T10:52:45.849Z,100166.09
2023-11-25T10:55:13.779Z,100166.06
2023-11-25T10:57:42.176Z,100160.88
2023-11-25T11:00:13.119Z,100141.81
2023-11-25T11:02:52.378Z,100162.59
2023-11-25T11:05:30.650Z,100147.00
2023-11-25T11:08:07.055Z,100148.72
2023-11-25T11:10:55.771Z,100146.16
2023-11-25T11:13:35.320Z,100122.72
2023-11-25T11:16:21.147Z,100134.00
2023-11-25T11:18:50.378Z,100127.06
2023-11-25T11:21:20.421Z,100121.00
2023-11-25T11:23:48.422Z,100133.13
2023-11-25T11:26:52.689Z,100115.78
2023-11-25T11:29:33.426Z,100134.00
2023-11-25T11:32:08.152Z,100114.06
2023-11-25T11:34:37.556Z,100117.50
2023-11-25T11:37:07.787Z,100101.88
2023-11-25T11:39:38.652Z,100106.22
2023-11-25T11:42:23.782Z,100120.09
2023-11-25T11:44:57.481Z,100112.28
2023-11-25T11:47:25.917Z,100118.38
2023-11-25T11:49:53.418Z,100100.13
2023-11-25T11:52:20.486Z,100087.13
2023-11-25T11:54:50.214Z,100119.22
2023-11-25T11:57:18.556Z,100107.91
2023-11-25T12:00:12.316Z,100101.84
2023-11-25T12:02:43.949Z,100085.38
2023-11-25T12:05:12.266Z,100113.13
2023-11-25T12:07:40.135Z,100115.72
2023-11-25T12:10:07.850Z,100097.50
2023-11-25T12:12:44.933Z,100103.56
2023-11-25T12:15:12.539Z,100088.84
2023-11-25T12:17:43.451Z,100083.66
2023-11-25T12:20:11.952Z,100083.63
2023-11-25T12:22:39.445Z,100079.28
2023-11-25T12:25:13.351Z,100076.66
2023-11-25T12:27:47.497Z,100079.28
2023-11-25T12:30:14.834Z,100072.34
2023-11-25T12:32:43.447Z,100090.53
2023-11-25T12:35:14.849Z,100054.13
2023-11-25T12:37:50.962Z,100060.19
2023-11-25T12:40:24.690Z,100074.91
2023-11-25T12:42:53.625Z,100071.44
2023-11-25T12:45:46.482Z,100074.91
2023-11-25T12:48:17.551Z,100076.59
2023-11-25T12:51:06.207Z,100056.66
2023-11-25T12:53:34.090Z,100059.22
2023-11-25T12:56:01.431Z,100054.91
2023-11-25T12:58:28.799Z,100025.41
2023-11-25T13:01:01.185Z,100020.19
2023-11-25T13:03:35.480Z,100037.50
2023-11-25T13:06:11.386Z,100030.53
2023-11-25T13:08:46.092Z,100046.13
2023-11-25T13:11:16.214Z,100022.69
2023-11-25T13:13:43.236Z,100030.50
2023-11-25T13:16:13.987Z,100020.13
2023-11-25T13:18:49.216Z,100047.88
2023-11-25T13:21:16.340Z,100027.06
2023-11-25T13:23:43.279Z,100025.31
2023-11-25T13:26:10.650Z,100042.63
2023-11-25T13:28:40.711Z,100034.84
2023-11-25T13:31:07.685Z,100028.75
2023-11-25T13:33:35.572Z,100047.88
2023-11-25T13:36:03.870Z,100027.03
2023-11-25T13:38:30.808Z,100027.00
2023-11-25T13:40:57.820Z,100020.97
2023-11-25T13:43:25.005Z,100021.78
2023-11-25T13:45:54.855Z,100016.59
2023-11-25T13:48:21.902Z,100019.16
2023-11-25T13:50:48.935Z,100045.13
2023-11-25T13:53:19.240Z,100014.81
2023-11-25T13:55:49.314Z,100019.09
2023-11-25T13:58:19.698Z,100007.78
2023-11-25T14:00:46.813Z,100038.91
2023-11-25T14:03:15.423Z,100009.31
2023-11-25T14:05:43.793Z,100040.47
2023-11-25T14:08:18.937Z,100039.63
2023-11-25T14:10:46.627Z,100027.56
2023-11-25T14:13:14.901Z,100018.03
2023-11-25T14:15:42.346Z,100028.44
2023-11-25T14:18:11.597Z,100039.81
2023-11-25T14:20:38.862Z,100024.19
2023-11-25T14:23:06.720Z,100004.31
2023-11-25T14:25:34.219Z,100017.31
2023-11-25T14:28:03.159Z,100020.78
2023-11-25T14:30:32.243Z,100015.56
2023-11-25T14:32:59.849Z,100012.16
2023-11-25T14:35:31.765Z,100012.09
2023-11-25T14:38:01.644Z,99970.53
2023-11-25T14:40:30.343Z,99998.31
2023-11-25T14:42:57.568Z,100011.28
2023-11-25T14:45:24.650Z,99916.94
2023-11-25T14:47:52.455Z,100002.63
2023-11-25T14:50:20.373Z,99965.38
2023-11-25T14:52:47.627Z,99957.59
2023-11-25T14:55:15.735Z,100003.41
2023-11-25T14:57:43.960Z,100012.94
2023-11-25T15:00:17.490Z,100009.59
2023-11-25T15:02:44.750Z,99993.16
2023-11-25T15:05:12.165Z,100004.38
2023-11-25T15:07:39.300Z,99990.53
2023-11-25T15:10:13.070Z,99987.91
2023-11-25T15:12:40.105Z,99987.94
2023-11-25T15:15:09.605Z,100008.69
2023-11-25T15:17:36.911Z,99991.41
2023-11-25T15:20:04.996Z,99935.16
2023-11-25T15:22:32.111Z,99993.97
2023-11-25T15:24:59.159Z,99999.13
2023-11-25T15:27:27.536Z,100006.88
2023-11-25T15:30:06.648Z,100006.03
2023-11-25T15:32:33.975Z,99911.75
2023-11-25T15:35:01.292Z,99925.63
2023-11-25T15:37:28.414Z,99980.13
2023-11-25T15:39:55.648Z,100014.78
2023-11-25T15:42:22.584Z,100018.19
2023-11-25T15:44:52.214Z,99983.59
2023-11-25T15:47:20.012Z,100003.44
2023-11-25T15:49:47.140Z,99991.41
2023-11-25T15:52:14.242Z,100022.56
2023-11-25T15:54:41.324Z,99998.31
2023-11-25T15:57:12.286Z,99990.50
2023-11-25T15:59:48.063Z,100003.50
2023-11-25T16:02:17.184Z,99971.47
2023-11-25T16:04:44.666Z,100005.19
2023-11-25T16:07:14.131Z,100017.34
2023-11-25T16:09:42.433Z,99997.44
2023-11-25T16:12:12.009Z,100006.13
2023-11-25T16:14:39.177Z,100021.75
2023-11-25T16:17:07.211Z,100007.88
2023-11-25T16:19:34.361Z,100007.81
2023-11-25T16:22:01.470Z,100001.81
2023-11-25T16:24:31.029Z,99995.72
2023-11-25T16:26:58.798Z,100017.34
2023-11-25T16:29:25.917Z,99962.81
2023-11-25T16:31:53.263Z,99923.84
2023-11-25T16:34:20.547Z,99996.56
2023-11-25T16:36:49.737Z,99991.44
2023-11-25T16:39:18.473Z,100021.69
2023-11-25T16:41:50.770Z,100006.09
2023-11-25T16:44:21.491Z,100011.31
2023-11-25T16:46:48.954Z,100024.28
2023-11-25T16:49:17.699Z,100026.06
2023-11-25T16:51:44.777Z,100002.66
2023-11-25T16:54:12.069Z,100030.38
2023-11-25T16:56:39.582Z,100006.16
2023-11-25T16:59:06.644Z,100007.91
2023-11-25T17:01:33.797Z,99999.19
2023-11-25T17:04:00.984Z,100025.19
2023-11-25T17:06:29.150Z,100024.28
2023-11-25T17:08:56.368Z,100004.47
2023-11-25T17:11:25.786Z,99988.78
2023-11-25T17:13:54.232Z,100013.09
2023-11-25T17:16:21.896Z,100019.97
2023-11-25T17:18:49.437Z,100001.88
2023-11-25T17:21:16.524Z,100031.31
2023-11-25T17:23:43.605Z,100035.59
2023-11-25T17:26:11.143Z,100034.75
2023-11-25T17:28:39.035Z,100030.44
2023-11-25T17:31:06.584Z,100020.91
2023-11-25T17:33:33.613Z,100026.13
2023-11-25T17:36:00.734Z,100015.63
2023-11-25T17:38:27.764Z,100000.94
2023-11-25T17:40:54.776Z,100039.91
2023-11-25T17:43:21.908Z,100000.09
2023-11-25T17:45:48.974Z,100028.63
2023-11-25T17:48:16.053Z,100031.28
2023-11-25T17:50:43.405Z,100046.00
2023-11-25T17:53:14.519Z,100039.91
2023-11-25T17:55:42.317Z,100042.50
2023-11-25T17:58:09.557Z,100053.75
2023-11-25T18:00:42.080Z,100015.69
2023-11-25T18:03:09.189Z,100042.56
2023-11-25T18:05:37.357Z,100048.59
2023-11-25T18:08:04.978Z,100052.09
2023-11-25T18:10:32.385Z,100038.28
2023-11-25T18:12:59.451Z,100054.72
2023-11-25T18:15:26.564Z,100020.88
2023-11-25T18:17:53.838Z,100026.91
2023-11-25T18:20:20.997Z,100028.66
2023-11-25T18:22:48.076Z,100012.22
2023-11-25T18:25:15.353Z,100052.97
2023-11-25T18:27:43.304Z,100045.09
2023-11-25T18:30:10.616Z,100033.03
2023-11-25T18:32:37.723Z,100046.03
2023-11-25T18:35:06.147Z,100049.53
2023-11-25T18:37:33.325Z,100049.50
2023-11-25T18:40:00.975Z,100070.28
2023-11-25T18:42:28.549Z,100034.72
2023-11-25T18:44:55.669Z,100011.31
2023-11-25T18:47:22.793Z,100051.16
2023-11-25T18:49:49.903Z,100026.06
2023-11-25T18:52:16.938Z,100052.06
2023-11-25T18:54:44.902Z,100065.94
2023-11-25T18:57:14.608Z,99982.81
2023-11-25T18:59:46.543Z,100045.09
2023-11-25T19:02:13.828Z,100055.53
2023-11-25T19:04:41.710Z,100044.22
2023-11-25T19:07:08.735Z,100064.16
2023-11-25T19:09:35.895Z,100048.53
2023-11-25T19:12:03.097Z,100039.00
2023-11-25T19:14:31.525Z,100046.81
2023-11-25T19:16:58.828Z,100058.06
2023-11-25T19:19:26.024Z,100038.13
2023-11-25T19:21:53.053Z,100057.19
2023-11-25T19:24:20.159Z,100055.47
2023-11-25T19:26:47.241Z,100068.44
2023-11-25T19:29:15.532Z,100080.63
2023-11-25T19:31:42.906Z,100080.59
2023-11-25T19:34:10.060Z,100067.59
2023-11-25T19:36:37.068Z,100071.94
2023-11-25T19:39:06.053Z,100062.38
2023-11-25T19:41:33.221Z,100077.13
2023-11-25T19:44:00.884Z,100076.25
2023-11-25T19:46:30.026Z,100065.88
2023-11-25T19:48:57.609Z,100096.19
2023-11-25T19:51:25.169Z,100077.97
2023-11-25T19:53:52.443Z,100097.03
2023-11-25T19:56:20.507Z,100097.94
2023-11-25T19:58:47.836Z,100091.84
2023-11-25T20:01:15.327Z,100097.97
2023-11-25T20:03:42.698Z,100098.81
2023-11-25T20:06:10.063Z,100110.03
2023-11-25T20:08:37.144Z,100084.91
2023-11-25T20:11:04.862Z,100087.47
2023-11-25T20:13:32.055Z,100074.47
2023-11-25T20:15:59.669Z,100090.97
2023-11-25T20:18:27.365Z,100110.88
2023-11-25T20:20:54.599Z,100084.09
2023-11-25T20:23:23.155Z,100110.88
2023-11-25T20:25:50.265Z,100116.06
2023-11-25T20:28:17.973Z,100101.41
2023-11-25T20:30:45.310Z,100075.38
2023-11-25T20:33:12.526Z,100093.63
2023-11-25T20:35:39.689Z,100090.16
2023-11-25T20:38:06.854Z,100117.06
2023-11-25T20:40:33.871Z,100107.50
2023-11-25T20:43:01.019Z,100118.81
2023-11-25T20:45:28.042Z,100107.50
2023-11-25T20:47:55.063Z,100124.84
2023-11-25T20:50:22.203Z,100110.13
2023-11-25T20:52:49.357Z,100115.28
2023-11-25T20:55:16.853Z,100110.13
2023-11-25T20:57:44.496Z,100124.88
2023-11-25T21:00:13.324Z,100127.53
2023-11-25T21:02:40.912Z,100097.19
2023-11-25T21:05:08.446Z,100123.16
2023-11-25T21:07:35.562Z,100115.38
2023-11-25T21:10:02.665Z,100141.34
2023-11-25T21:12:29.649Z,100111.91
2023-11-25T21:14:56.737Z,100121.47
2023-11-25T21:17:24.074Z,100132.72
2023-11-25T21:19:51.075Z,100155.28
2023-11-25T21:22:19.559Z,100164.00
2023-11-25T21:24:46.649Z,100224.78
2023-11-25T21:27:13.631Z,100171.03
2023-11-25T21:29:40.615Z,100223.09
2023-11-25T21:32:09.643Z,100235.34
2023-11-25T21:34:37.437Z,100233.63
2023-11-25T21:37:05.822Z,100230.16
2023-11-25T21:39:33.025Z,100208.47
2023-11-25T21:42:03.505Z,100237.13
2023-11-25T21:44:30.526Z,100231.03
2023-11-25T21:46:58.836Z,100236.22
2023-11-25T21:49:25.969Z,100237.94
2023-11-25T21:51:52.940Z,100242.34
2023-11-25T21:54:19.959Z,100202.47
2023-11-25T21:56:47.063Z,100224.09
2023-11-25T21:59:15.055Z,100226.75
2023-11-25T22:01:42.578Z,100219.81
2023-11-25T22:04:12.921Z,100215.50
2023-11-25T22:06:40.301Z,100251.06
2023-11-25T22:09:09.332Z,100243.25
2023-11-25T22:11:36.468Z,100251.97
2023-11-25T22:14:03.505Z,100256.31
2023-11-25T22:16:30.568Z,100277.16
2023-11-25T22:18:58.786Z,100278.88
2023-11-25T22:21:25.888Z,100270.22
2023-11-25T22:23:53.274Z,100293.69
2023-11-25T22:26:26.933Z,100290.19
2023-11-25T22:28:54.119Z,100281.53
2023-11-25T22:31:22.386Z,100295.44
2023-11-25T22:33:50.509Z,100272.88
2023-11-25T22:36:25.556Z,100299.78
2023-11-25T22:38:53.586Z,100283.28
2023-11-25T22:41:22.189Z,100300.66
2023-11-25T22:43:51.909Z,100290.25
2023-11-25T22:46:21.695Z,100311.06
2023-11-25T22:48:50.112Z,100292.84
2023-11-25T22:51:19.974Z,100296.31
2023-11-25T22:53:50.271Z,100321.50
2023-11-25T22:56:17.362Z,100314.53
2023-11-25T22:58:45.038Z,100315.41
2023-11-25T23:01:18.596Z,100305.88
2023-11-25T23:03:46.767Z,100299.78
2023-11-25T23:06:13.847Z,100308.47
2023-11-25T23:08:45.625Z,100324.06
2023-11-25T23:11:12.896Z,100337.13
2023-11-25T23:13:39.998Z,100315.38
2023-11-25T23:16:07.122Z,100336.22
2023-11-25T23:18:34.432Z,100300.59
2023-11-25T23:21:01.420Z,100325.81
2023-11-25T23:23:37.900Z,100310.13
2023-11-25T23:26:10.624Z,100333.59
2023-11-25T23:28:37.712Z,100310.97
2023-11-25T23:31:08.572Z,100317.03
2023-11-25T23:33:35.589Z,100337.03
2023-11-25T23:36:02.589Z,100333.53
2023-11-25T23:38:29.778Z,100338.72
2023-11-25T23:40:57.675Z,100330.91
2023-11-25T23:43:25.009Z,100344.78
2023-11-25T23:45:52.002Z,100343.88
2023-11-25T23:48:18.974Z,100310.88
2023-11-25T23:50:46.051Z,100348.22
2023-11-25T23:53:13.386Z,100349.94
2023-11-25T23:55:40.825Z,100337.78
2023-11-25T23:58:07.899Z,100329.94
